createdAt,value
2023-01-06T00:00:20.808Z,73.22
2023-01-06T00:04:02.071Z,73.19
2023-01-06T00:07:29.030Z,73.01
2023-01-06T00:10:56.463Z,72.84
2023-01-06T00:14:23.811Z,72.95
2023-01-06T00:17:50.953Z,72.65
2023-01-06T00:21:18.368Z,72.85
2023-01-06T00:24:46.445Z,72.93
2023-01-06T00:28:14.394Z,73.02
2023-01-06T00:31:42.697Z,72.61
2023-01-06T00:35:10.570Z,72.90
2023-01-06T00:38:38.864Z,72.72
2023-01-06T00:42:05.267Z,72.79
2023-01-06T00:45:33.793Z,72.76
2023-01-06T00:49:06.200Z,73.18
2023-01-06T00:52:36.355Z,73.24
2023-01-06T00:56:06.845Z,73.14
2023-01-06T00:59:35.039Z,72.98
2023-01-06T01:03:13.364Z,73.21
2023-01-06T01:06:42.869Z,73.22
2023-01-06T01:10:13.665Z,73.35
2023-01-06T01:13:41.057Z,73.29
2023-01-06T01:17:08.468Z,73.37
2023-01-06T01:20:35.771Z,73.23
2023-01-06T01:24:02.009Z,73.47
2023-01-06T01:27:29.149Z,73.53
2023-01-06T01:31:03.845Z,73.50
2023-01-06T01:34:30.538Z,73.46
2023-01-06T01:37:57.666Z,73.36
2023-01-06T01:41:25.983Z,73.72
2023-01-06T01:45:01.648Z,73.68
2023-01-06T01:48:37.695Z,73.59
2023-01-06T01:52:14.273Z,73.48
2023-01-06T01:55:41.346Z,73.78
2023-01-06T01:59:12.889Z,73.64
2023-01-06T02:02:40.674Z,73.85
2023-01-06T02:06:12.995Z,73.84
2023-01-06T02:09:46.320Z,73.86
2023-01-06T02:13:16.363Z,73.93
2023-01-06T02:16:55.040Z,73.76
2023-01-06T02:20:39.611Z,73.70
2023-01-06T02:24:46.058Z,73.51
2023-01-06T02:28:47.051Z,73.29
2023-01-06T02:32:29.200Z,73.80
2023-01-06T02:36:18.450Z,73.58
2023-01-06T02:39:57.507Z,73.76
2023-01-06T02:43:32.588Z,73.44
2023-01-06T02:47:16.750Z,73.44
2023-01-06T02:50:48.619Z,73.56
2023-01-06T02:54:21.891Z,73.44
2023-01-06T02:57:55.434Z,73.51
2023-01-06T03:01:27.930Z,73.49
2023-01-06T03:04:57.908Z,73.65
2023-01-06T03:08:29.461Z,73.60
2023-01-06T03:11:57.398Z,73.71
2023-01-06T03:15:26.609Z,73.68
2023-01-06T03:18:56.081Z,73.79
2023-01-06T03:22:25.407Z,73.60
2023-01-06T03:25:52.821Z,73.43
2023-01-06T03:29:23.022Z,73.43
2023-01-06T03:33:00.638Z,73.33
2023-01-06T03:36:38.787Z,73.36
2023-01-06T03:40:11.227Z,73.41
2023-01-06T03:43:45.901Z,73.38
2023-01-06T03:47:18.689Z,73.49
2023-01-06T03:50:52.216Z,73.44
2023-01-06T03:54:33.975Z,73.19
2023-01-06T03:58:04.676Z,73.28
2023-01-06T04:01:33.071Z,73.25
2023-01-06T04:05:11.509Z,73.18
2023-01-06T04:08:38.009Z,73.26
2023-01-06T04:12:22.743Z,73.38
2023-01-06T04:15:51.028Z,73.30
2023-01-06T04:19:18.466Z,73.64
2023-01-06T04:22:45.198Z,73.23
2023-01-06T04:26:14.664Z,73.37
2023-01-06T04:29:49.194Z,73.34
2023-01-06T04:33:17.215Z,73.67
2023-01-06T04:36:57.572Z,73.44
2023-01-06T04:40:27.722Z,73.49
2023-01-06T04:44:00.973Z,73.20
2023-01-06T04:47:32.509Z,73.36
2023-01-06T04:51:09.831Z,73.54
2023-01-06T04:54:37.313Z,73.27
2023-01-06T04:58:08.091Z,73.42
2023-01-06T05:01:37.904Z,73.40
2023-01-06T05:05:13.821Z,73.49
2023-01-06T05:08:43.796Z,73.32
2023-01-06T05:12:12.465Z,73.29
2023-01-06T05:15:43.467Z,73.32
2023-01-06T05:19:13.046Z,73.01
2023-01-06T05:22:40.029Z,73.18
2023-01-06T05:26:08.264Z,72.99
2023-01-06T05:29:35.553Z,73.22
2023-01-06T05:33:02.099Z,73.33
2023-01-06T05:36:29.310Z,73.18
2023-01-06T05:39:56.142Z,73.56
2023-01-06T05:43:23.989Z,73.44
2023-01-06T05:46:52.159Z,73.48
2023-01-06T05:50:19.590Z,73.27
2023-01-06T05:53:49.666Z,73.39
2023-01-06T05:57:16.018Z,72.92
2023-01-06T06:00:42.759Z,73.21
2023-01-06T06:04:09.448Z,73.05
2023-01-06T06:07:36.047Z,72.80
2023-01-06T06:11:07.151Z,73.06
2023-01-06T06:14:34.460Z,72.79
2023-01-06T06:18:02.810Z,72.67
2023-01-06T06:21:31.495Z,72.59
2023-01-06T06:24:59.214Z,73.09
2023-01-06T06:28:27.344Z,72.58
2023-01-06T06:31:54.613Z,72.72
2023-01-06T06:35:21.668Z,72.79
2023-01-06T06:38:50.472Z,72.85
2023-01-06T06:42:19.761Z,72.73
2023-01-06T06:45:50.034Z,72.70
2023-01-06T06:49:16.844Z,73.08
2023-01-06T06:52:43.538Z,72.85
2023-01-06T06:56:11.964Z,73.09
2023-01-06T06:59:39.365Z,73.12
2023-01-06T07:03:06.521Z,73.28
2023-01-06T07:06:33.292Z,73.51
2023-01-06T07:10:00.153Z,73.51
2023-01-06T07:13:28.031Z,73.56
2023-01-06T07:17:01.526Z,73.20
2023-01-06T07:20:26.656Z,73.41
2023-01-06T07:23:58.694Z,73.32
2023-01-06T07:27:25.871Z,73.40
2023-01-06T07:30:52.652Z,73.18
2023-01-06T07:34:19.274Z,72.97
2023-01-06T07:37:45.674Z,72.86
2023-01-06T07:41:12.158Z,73.19
2023-01-06T07:44:38.980Z,72.83
2023-01-06T07:48:06.477Z,72.81
2023-01-06T07:51:34.790Z,72.75
2023-01-06T07:55:01.541Z,72.66
2023-01-06T07:58:28.612Z,73.04
2023-01-06T08:01:58.935Z,73.12
2023-01-06T08:05:29.291Z,73.44
2023-01-06T08:09:00.258Z,73.46
2023-01-06T08:12:27.712Z,73.30
2023-01-06T08:15:55.220Z,73.20
2023-01-06T08:19:22.078Z,73.15
2023-01-06T08:22:48.561Z,73.18
2023-01-06T08:26:17.891Z,73.09
2023-01-06T08:29:44.623Z,73.06
2023-01-06T08:33:11.193Z,72.87
2023-01-06T08:36:39.152Z,72.77
2023-01-06T08:40:10.468Z,72.87
2023-01-06T08:43:39.055Z,72.81
2023-01-06T08:47:07.078Z,72.94
2023-01-06T08:50:36.479Z,73.24
2023-01-06T08:54:03.261Z,72.98
2023-01-06T08:57:30.419Z,73.01
2023-01-06T09:00:57.378Z,73.03
2023-01-06T09:04:24.526Z,72.86
2023-01-06T09:07:52.041Z,73.15
2023-01-06T09:11:19.384Z,73.08
2023-01-06T09:14:46.153Z,73.23
2023-01-06T09:18:13.609Z,73.20
2023-01-06T09:21:43.060Z,73.08
2023-01-06T09:25:12.710Z,73.06
2023-01-06T09:28:39.617Z,73.13
2023-01-06T09:32:06.285Z,73.06
2023-01-06T09:35:32.764Z,73.11
2023-01-06T09:38:59.116Z,73.13
2023-01-06T09:42:42.947Z,73.16
2023-01-06T09:46:12.046Z,72.89
2023-01-06T09:49:44.490Z,73.15
2023-01-06T09:53:19.775Z,73.12
2023-01-06T09:56:51.155Z,72.85
2023-01-06T10:00:28.940Z,73.10
2023-01-06T10:03:57.108Z,72.76
2023-01-06T10:07:30.778Z,72.79
2023-01-06T10:11:08.838Z,72.78
2023-01-06T10:14:47.660Z,72.87
2023-01-06T10:18:33.271Z,73.00
2023-01-06T10:22:12.801Z,73.11
2023-01-06T10:25:43.429Z,73.05
2023-01-06T10:29:17.585Z,73.44
2023-01-06T10:32:45.580Z,73.20
2023-01-06T10:36:16.729Z,73.43
2023-01-06T10:39:47.346Z,73.05
2023-01-06T10:43:16.088Z,73.04
2023-01-06T10:46:49.923Z,72.78
2023-01-06T10:50:20.284Z,73.00
2023-01-06T10:53:46.984Z,72.95
2023-01-06T10:57:22.643Z,73.13
2023-01-06T11:01:00.206Z,73.20
2023-01-06T11:04:28.482Z,73.22
2023-01-06T11:08:04.438Z,73.26
2023-01-06T11:11:31.817Z,73.00
2023-01-06T11:15:01.702Z,72.92
2023-01-06T11:18:31.804Z,73.09
2023-01-06T11:21:58.172Z,73.23
2023-01-06T11:25:32.302Z,73.46
2023-01-06T11:29:18.097Z,73.05
2023-01-06T11:32:45.235Z,73.46
2023-01-06T11:36:16.103Z,73.60
2023-01-06T11:39:49.124Z,73.58
2023-01-06T11:43:23.526Z,73.50
2023-01-06T11:46:53.977Z,73.24
2023-01-06T11:50:23.847Z,73.32
2023-01-06T11:54:01.694Z,73.27
2023-01-06T11:57:41.543Z,73.22
2023-01-06T12:01:17.317Z,73.20
2023-01-06T12:04:49.864Z,73.07
2023-01-06T12:08:23.020Z,73.07
2023-01-06T12:11:53.195Z,73.07
2023-01-06T12:15:21.367Z,73.05
2023-01-06T12:18:51.203Z,72.97
2023-01-06T12:22:26.650Z,73.08
2023-01-06T12:25:59.169Z,72.73
2023-01-06T12:29:27.968Z,72.65
2023-01-06T12:32:58.694Z,72.65
2023-01-06T12:36:34.914Z,72.94
2023-01-06T12:40:11.192Z,72.98
2023-01-06T12:43:42.574Z,72.89
2023-01-06T12:47:18.303Z,72.84
2023-01-06T12:50:52.794Z,72.65
2023-01-06T12:54:25.349Z,72.50
2023-01-06T12:58:00.584Z,72.46
2023-01-06T13:01:37.872Z,72.24
2023-01-06T13:05:34.470Z,72.22
2023-01-06T13:09:12.369Z,72.43
2023-01-06T13:13:00.717Z,72.61
2023-01-06T13:16:33.226Z,72.73
2023-01-06T13:20:06.196Z,72.69
2023-01-06T13:23:52.247Z,72.86
2023-01-06T13:27:42.358Z,73.04
2023-01-06T13:31:27.872Z,73.15
2023-01-06T13:35:11.897Z,73.19
2023-01-06T13:38:57.730Z,73.34
2023-01-06T13:42:37.433Z,73.28
2023-01-06T13:46:09.479Z,73.52
2023-01-06T13:49:39.388Z,73.67
2023-01-06T13:53:07.973Z,73.47
2023-01-06T13:56:36.200Z,73.31
2023-01-06T14:00:18.746Z,73.43
2023-01-06T14:03:46.999Z,73.58
2023-01-06T14:07:15.210Z,73.57
2023-01-06T14:10:44.380Z,73.89
2023-01-06T14:14:25.379Z,73.70
2023-01-06T14:17:52.073Z,73.61
2023-01-06T14:21:24.265Z,73.81
2023-01-06T14:24:56.676Z,73.75
2023-01-06T14:28:36.086Z,73.98
2023-01-06T14:32:07.710Z,74.01
2023-01-06T14:35:43.496Z,74.21
2023-01-06T14:39:20.879Z,74.04
2023-01-06T14:42:53.731Z,74.11
2023-01-06T14:46:27.135Z,74.32
2023-01-06T14:50:00.039Z,74.26
2023-01-06T14:53:33.617Z,74.41
2023-01-06T14:57:06.289Z,74.54
2023-01-06T15:00:34.640Z,74.69
2023-01-06T15:04:05.691Z,74.62
2023-01-06T15:07:34.990Z,74.68
2023-01-06T15:11:21.683Z,74.66
2023-01-06T15:14:48.982Z,74.70
2023-01-06T15:18:17.520Z,74.62
2023-01-06T15:21:47.177Z,74.59
2023-01-06T15:25:24.236Z,74.65
2023-01-06T15:29:03.478Z,74.79
2023-01-06T15:32:30.597Z,74.78
2023-01-06T15:35:58.632Z,74.91
2023-01-06T15:39:30.427Z,74.90
2023-01-06T15:42:57.174Z,74.96
2023-01-06T15:46:24.007Z,75.09
2023-01-06T15:49:56.731Z,75.26
2023-01-06T15:53:26.733Z,75.18
2023-01-06T15:56:53.594Z,75.28
2023-01-06T16:00:27.335Z,75.22
2023-01-06T16:03:56.975Z,75.19
2023-01-06T16:07:36.610Z,75.43
2023-01-06T16:12:02.781Z,75.43
2023-01-06T16:15:47.997Z,75.61
2023-01-06T16:19:24.675Z,75.55
2023-01-06T16:22:54.679Z,75.46
2023-01-06T16:26:24.217Z,75.48
2023-01-06T16:30:08.966Z,75.60
2023-01-06T16:33:40.496Z,75.52
2023-01-06T16:37:07.380Z,75.43
2023-01-06T16:40:34.081Z,75.51
2023-01-06T16:44:00.375Z,75.52
2023-01-06T16:47:27.195Z,75.74
2023-01-06T16:50:55.311Z,75.69
2023-01-06T16:54:22.306Z,75.83
2023-01-06T16:57:52.484Z,75.83
2023-01-06T17:01:23.745Z,76.02
2023-01-06T17:04:51.558Z,76.16
2023-01-06T17:08:26.813Z,76.19
2023-01-06T17:11:54.412Z,76.03
2023-01-06T17:15:21.027Z,76.19
2023-01-06T17:18:55.172Z,76.41
2023-01-06T17:22:28.012Z,76.12
2023-01-06T17:26:01.752Z,76.28
2023-01-06T17:29:34.389Z,76.52
2023-01-06T17:33:01.092Z,76.41
2023-01-06T17:36:32.851Z,76.36
2023-01-06T17:40:00.953Z,76.42
2023-01-06T17:43:36.605Z,76.21
2023-01-06T17:47:06.980Z,76.57
2023-01-06T17:50:37.365Z,76.47
2023-01-06T17:54:29.554Z,76.66
2023-01-06T17:58:01.597Z,76.57
2023-01-06T18:01:32.478Z,76.74
2023-01-06T18:05:04.710Z,76.85
2023-01-06T18:08:35.455Z,76.94
2023-01-06T18:12:11.515Z,76.70
2023-01-06T18:15:38.773Z,76.92
2023-01-06T18:19:33.770Z,77.01
2023-01-06T18:23:04.208Z,77.16
2023-01-06T18:26:41.237Z,76.90
2023-01-06T18:30:21.920Z,76.94
2023-01-06T18:33:53.558Z,77.23
2023-01-06T18:37:23.086Z,77.28
2023-01-06T18:40:51.142Z,77.35
2023-01-06T18:44:26.960Z,77.15
2023-01-06T18:47:58.158Z,77.44
2023-01-06T18:51:26.012Z,77.10
2023-01-06T18:54:57.449Z,77.22
2023-01-06T18:58:39.076Z,77.19
2023-01-06T19:02:25.832Z,77.40
2023-01-06T19:05:53.673Z,77.24
2023-01-06T19:09:27.945Z,77.01
2023-01-06T19:13:00.027Z,77.33
2023-01-06T19:16:36.400Z,76.87
2023-01-06T19:20:18.167Z,77.02
2023-01-06T19:23:55.692Z,76.88
2023-01-06T19:27:40.364Z,76.97
2023-01-06T19:31:17.916Z,77.26
2023-01-06T19:34:45.873Z,77.35
2023-01-06T19:38:27.705Z,77.07
2023-01-06T19:42:00.066Z,77.17
2023-01-06T19:45:35.154Z,77.14
2023-01-06T19:49:02.250Z,77.40
2023-01-06T19:52:44.837Z,77.42
2023-01-06T19:56:27.504Z,77.20
2023-01-06T19:59:59.542Z,77.12
2023-01-06T20:03:31.547Z,77.36
2023-01-06T20:07:02.907Z,77.34
2023-01-06T20:10:34.917Z,77.01
2023-01-06T20:14:04.337Z,77.15
2023-01-06T20:17:36.961Z,77.25
2023-01-06T20:21:05.638Z,77.13
2023-01-06T20:24:38.469Z,77.13
2023-01-06T20:28:14.844Z,77.18
2023-01-06T20:31:54.937Z,77.46
2023-01-06T20:35:26.819Z,77.71
2023-01-06T20:39:01.740Z,77.87
2023-01-06T20:42:35.152Z,77.86
2023-01-06T20:46:08.929Z,77.59
2023-01-06T20:49:37.360Z,77.72
2023-01-06T20:53:07.949Z,77.68
2023-01-06T20:56:42.904Z,78.09
2023-01-06T21:00:22.050Z,77.90
2023-01-06T21:03:59.657Z,77.72
2023-01-06T21:07:27.357Z,77.58
2023-01-06T21:10:59.380Z,77.59
2023-01-06T21:14:28.374Z,77.59
2023-01-06T21:18:04.346Z,77.52
2023-01-06T21:21:33.622Z,77.67
2023-01-06T21:25:06.838Z,77.83
2023-01-06T21:28:39.063Z,77.53
2023-01-06T21:32:08.550Z,77.70
2023-01-06T21:35:43.692Z,77.66
2023-01-06T21:39:14.925Z,77.36
2023-01-06T21:43:02.720Z,77.44
2023-01-06T21:46:38.497Z,77.72
2023-01-06T21:50:09.951Z,77.79
2023-01-06T21:53:45.155Z,78.03
2023-01-06T21:57:18.218Z,77.76
2023-01-06T22:00:49.951Z,77.79
2023-01-06T22:04:26.877Z,77.99
2023-01-06T22:07:57.516Z,77.98
2023-01-06T22:11:34.101Z,78.28
2023-01-06T22:15:04.616Z,78.02
2023-01-06T22:18:33.111Z,77.99
2023-01-06T22:22:05.686Z,77.77
2023-01-06T22:25:32.849Z,77.86
2023-01-06T22:29:01.181Z,78.12
2023-01-06T22:32:29.723Z,78.03
2023-01-06T22:36:03.423Z,78.07
2023-01-06T22:39:32.044Z,77.81
2023-01-06T22:42:59.414Z,78.02
2023-01-06T22:46:35.583Z,77.89
2023-01-06T22:50:02.930Z,78.20
2023-01-06T22:53:31.901Z,78.38
2023-01-06T22:57:02.515Z,78.40
2023-01-06T23:00:29.555Z,78.26
2023-01-06T23:03:58.640Z,78.46
2023-01-06T23:07:30.240Z,78.49
2023-01-06T23:11:05.087Z,78.48
2023-01-06T23:14:34.029Z,78.39
2023-01-06T23:18:00.767Z,78.47
2023-01-06T23:21:31.607Z,78.55
2023-01-06T23:25:00.511Z,78.53
2023-01-06T23:28:29.215Z,78.55
2023-01-06T23:31:58.987Z,78.35
2023-01-06T23:35:38.095Z,78.18
2023-01-06T23:39:10.889Z,78.17
2023-01-06T23:42:48.020Z,78.26
2023-01-06T23:46:19.275Z,78.20
2023-01-06T23:49:48.506Z,78.07
2023-01-06T23:53:15.649Z,78.08
2023-01-06T23:56:43.459Z,77.99
